Time;durP1;ratioP1;P1;durP2;ratioP2;P2;SDS_P1;SDS_P2;PMS_P1;PMS_P2;Temp;Humidity;BMP_temperature;BMP_pressure;BME280_temperature;BME280_humidity;BME280_pressure;Samples;Min_cycle;Max_cycle;Signal;HPM_P1;HPM_P2
2022/12/31 00:01:48;;;;;;;34.85;25.55;;;;;;;0.57;81.11;100840.42;1748315;82;21050;-74
2022/12/31 00:04:14;;;;;;;32.03;24.92;;;;;;;0.59;81.09;100838.25;1754453;80;20960;-74
2022/12/31 00:06:42;;;;;;;33.02;25.52;;;;;;;0.59;81.12;100843.00;1732847;82;20948;-74
2022/12/31 00:09:09;;;;;;;33.02;24.82;;;;;;;0.60;81.17;100842.55;1763266;81;21482;-73
2022/12/31 00:11:36;;;;;;;32.38;25.10;;;;;;;0.61;81.19;100842.50;1742209;80;22610;-75
2022/12/31 00:14:02;;;;;;;29.57;23.85;;;;;;;0.64;81.18;100843.69;1734289;82;20923;-74
2022/12/31 00:16:38;;;;;;;34.10;24.32;;;;;;;0.67;81.17;100849.23;1734605;81;21067;-74
2022/12/31 00:19:07;;;;;;;43.15;30.35;;;;;;;0.67;81.17;100849.23;1734409;82;20963;-74
2022/12/31 00:21:34;;;;;;;77.90;45.55;;;;;;;0.68;81.16;100852.27;1764696;81;20936;-74
2022/12/31 00:24:03;;;;;;;92.08;55.85;;;;;;;0.69;81.18;100853.52;1764783;81;21889;-75
2022/12/31 00:26:31;;;;;;;118.02;81.02;;;;;;;0.72;81.22;100858.61;1764939;81;21059;-75
2022/12/31 00:28:58;;;;;;;143.80;95.60;;;;;;;0.75;81.22;100863.70;1710514;81;20990;-75
2022/12/31 00:31:33;;;;;;;108.57;72.67;;;;;;;0.77;81.27;100861.93;1734675;82;21975;-75
2022/12/31 00:34:00;;;;;;;71.30;48.85;;;;;;;0.82;81.29;100871.72;1734437;82;20959;-75
2022/12/31 00:36:31;;;;;;;50.55;36.77;;;;;;;0.85;81.34;100867.71;1710674;81;21905;-75
2022/12/31 00:38:58;;;;;;;37.42;27.52;;;;;;;0.90;81.35;100874.53;1731646;82;20987;-76
2022/12/31 00:41:25;;;;;;;40.20;27.67;;;;;;;0.91;81.31;100875.78;1763224;80;21488;-74
2022/12/31 00:43:51;;;;;;;48.85;34.08;;;;;;;0.92;81.31;100877.48;1779171;80;20988;-75
2022/12/31 00:46:18;;;;;;;57.88;37.03;;;;;;;0.95;81.29;100879.12;1748401;81;21071;-75
2022/12/31 00:48:45;;;;;;;54.63;36.33;;;;;;;0.98;81.30;100877.75;1763813;80;21855;-75
2022/12/31 00:51:14;;;;;;;55.20;36.28;;;;;;;0.99;81.32;100872.50;1764692;81;21047;-74
2022/12/31 00:53:40;;;;;;;47.58;31.80;;;;;;;1.01;81.34;100878.49;1758493;81;21394;-75
2022/12/31 00:56:16;;;;;;;42.93;29.30;;;;;;;1.03;81.37;100884.49;1715591;83;21562;-73
2022/12/31 00:58:43;;;;;;;38.88;28.50;;;;;;;1.09;81.53;100891.26;1734358;82;20987;-75
2022/12/31 01:01:16;;;;;;;31.20;24.10;;;;;;;1.11;81.55;100885.09;1716653;82;21760;-75
2022/12/31 01:03:43;;;;;;;30.45;23.42;;;;;;;1.13;81.56;100881.14;1715548;83;20965;-75
2022/12/31 01:06:10;;;;;;;32.20;24.43;;;;;;;1.15;81.58;100883.23;1723582;83;20999;-75
2022/12/31 01:08:36;;;;;;;33.75;24.45;;;;;;;1.18;81.58;100879.71;1723744;82;21035;-75
2022/12/31 01:11:18;;;;;;;67.82;44.83;;;;;;;1.19;81.54;100873.15;1731673;81;20940;-75
2022/12/31 01:13:46;;;;;;;70.45;44.65;;;;;;;1.21;81.55;100879.15;1743669;82;21951;-74
2022/12/31 01:16:13;;;;;;;55.63;36.50;;;;;;;1.24;81.56;100878.19;1743782;82;21059;-76
2022/12/31 01:18:39;;;;;;;35.48;26.12;;;;;;;1.25;81.52;100879.89;1751508;81;21008;-75
2022/12/31 01:21:08;;;;;;;30.43;24.10;;;;;;;1.27;81.54;100882.86;1753821;81;21091;-75
2022/12/31 01:23:35;;;;;;;29.32;21.80;;;;;;;1.28;81.55;100881.95;1753616;81;21044;-74
2022/12/31 01:26:04;;;;;;;26.15;19.42;;;;;;;1.31;81.55;100895.31;1753641;81;22454;-74
2022/12/31 01:28:30;;;;;;;25.52;20.00;;;;;;;1.32;81.59;100895.70;1751550;81;21531;-75
2022/12/31 01:30:58;;;;;;;25.97;19.73;;;;;;;1.36;81.73;100899.48;1751944;82;20969;-75
2022/12/31 01:33:24;;;;;;;27.40;22.15;;;;;;;1.41;81.81;100898.00;1752318;82;20954;-74
2022/12/31 01:35:51;;;;;;;23.35;18.98;;;;;;;1.43;81.82;100894.89;1739883;81;21007;-74
2022/12/31 01:38:17;;;;;;;24.57;19.80;;;;;;;1.44;81.82;100898.74;1723765;83;21870;-75
2022/12/31 01:40:44;;;;;;;24.92;20.27;;;;;;;1.47;81.89;100890.00;1723528;83;21004;-75
2022/12/31 01:43:18;;;;;;;26.95;19.12;;;;;;;1.50;81.90;100891.64;1723692;83;21182;-75
2022/12/31 01:45:47;;;;;;;21.95;18.62;;;;;;;1.52;81.91;100896.34;1737408;81;21561;-75
2022/12/31 01:48:16;;;;;;;21.87;18.35;;;;;;;1.54;81.89;100903.64;1744023;81;20965;-74
2022/12/31 01:50:43;;;;;;;23.07;18.48;;;;;;;1.54;81.85;100899.73;1743817;82;22588;-73
2022/12/31 01:53:10;;;;;;;22.35;18.30;;;;;;;1.55;81.81;100905.38;1732259;81;21059;-74
2022/12/31 01:55:50;;;;;;;21.37;17.37;;;;;;;1.56;81.83;100904.47;1723613;83;21063;-74
2022/12/31 01:58:23;;;;;;;23.25;18.40;;;;;;;1.57;81.83;100907.47;1723881;83;21027;-74
2022/12/31 02:00:50;;;;;;;;;;;;;;;1.57;81.83;100908.77;1726288;83;20993;-74
2022/12/31 02:03:16;;;;;;;24.25;19.45;;;;;;;1.57;81.85;100918.73;1748900;82;21819;-74
2022/12/31 02:05:57;;;;;;;25.10;19.45;;;;;;;1.57;81.83;100926.54;1751891;82;20973;-74
2022/12/31 02:08:24;;;;;;;24.02;18.27;;;;;;;1.56;81.79;100926.59;1752121;82;20957;-74
2022/12/31 02:10:51;;;;;;;23.18;18.05;;;;;;;1.56;81.78;100937.01;1728180;81;20967;-74
2022/12/31 02:13:18;;;;;;;24.70;19.05;;;;;;;1.55;81.72;100939.22;1723692;83;21004;-75
2022/12/31 02:16:06;;;;;;;24.30;18.77;;;;;;;1.54;81.73;100930.98;1723673;83;21935;-74
2022/12/31 02:18:55;;;;;;;24.72;19.40;;;;;;;1.53;81.68;100930.12;1749238;81;21485;-74
2022/12/31 02:21:36;;;;;;;24.82;18.62;;;;;;;1.52;81.64;100934.09;1753849;81;20940;-74
2022/12/31 02:24:20;;;;;;;23.47;18.05;;;;;;;1.51;81.64;100937.14;1753799;81;20968;-75
2022/12/31 02:27:04;;;;;;;23.95;19.62;;;;;;;1.50;81.65;100938.50;1726911;81;21000;-74
2022/12/31 02:30:08;;;;;;;25.45;19.10;;;;;;;1.49;81.67;100940.25;1762485;81;21828;-75
2022/12/31 02:32:56;;;;;;;27.48;21.20;;;;;;;1.49;81.63;100941.56;1748066;81;21076;-74
2022/12/31 02:35:59;;;;;;;26.02;19.40;;;;;;;1.49;81.61;100940.25;1746955;82;21091;-74
2022/12/31 02:38:31;;;;;;;24.05;19.40;;;;;;;1.48;81.59;100935.95;1735887;82;21573;-75
2022/12/31 02:40:58;;;;;;;24.23;18.73;;;;;;;1.46;81.57;100941.67;1735785;82;21004;-75
2022/12/31 02:43:24;;;;;;;25.00;19.32;;;;;;;1.44;81.56;100936.48;1737143;82;21827;-75
2022/12/31 02:46:21;;;;;;;26.17;19.95;;;;;;;1.43;81.56;100944.35;1748035;82;20939;-74
2022/12/31 02:48:55;;;;;;;28.20;22.82;;;;;;;1.40;81.54;100942.70;1748361;82;21028;-73
2022/12/31 02:51:32;;;;;;;36.65;28.62;;;;;;;1.40;81.52;100945.31;1756247;81;20956;-73
2022/12/31 02:54:07;;;;;;;33.30;25.23;;;;;;;1.39;81.52;100938.41;1754495;81;21048;-74
2022/12/31 02:56:48;;;;;;;27.85;21.87;;;;;;;1.39;81.46;100942.77;1753693;81;22936;-74
2022/12/31 03:02:18;;;;;;;30.17;23.32;;;;;;;1.29;81.38;100932.25;1680571;84;21122;-74
2022/12/31 03:04:56;;;;;;;27.55;22.27;;;;;;;1.27;81.34;100929.70;1725827;83;20999;-75
2022/12/31 03:07:27;;;;;;;26.10;20.60;;;;;;;1.24;81.32;100940.19;1723720;83;21019;-74
2022/12/31 03:09:54;;;;;;;27.13;20.62;;;;;;;1.21;81.32;100939.45;1706431;82;21966;-74
2022/12/31 03:15:18;;;;;;;30.30;24.00;;;;;;;1.15;81.32;100936.13;1757471;81;21003;-74
2022/12/31 03:17:39;;;;;;;31.55;24.00;;;;;;;1.12;81.26;100937.98;1741566;82;21001;-74
2022/12/31 03:22:51;;;;;;;71.57;49.15;;;;;;;1.00;81.02;100948.33;1748348;82;22251;-74
2022/12/31 03:28:07;;;;;;;82.42;57.53;;;;;;;0.88;81.07;100968.22;1746085;82;20949;-74
2022/12/31 03:30:36;;;;;;;75.67;53.52;;;;;;;0.85;81.08;100975.63;1727673;83;21435;-74
2022/12/31 03:33:03;;;;;;;71.92;51.92;;;;;;;0.81;81.08;100984.44;1757457;81;20992;-74
2022/12/31 03:35:32;;;;;;;55.50;41.37;;;;;;;0.78;81.10;100988.89;1721260;82;22237;-75
2022/12/31 03:37:58;;;;;;;56.15;42.48;;;;;;;0.77;81.09;100996.25;1712804;83;20996;-74
2022/12/31 03:40:26;;;;;;;61.80;43.98;;;;;;;0.75;81.08;101004.11;1712915;83;21004;-75
2022/12/31 03:42:53;;;;;;;61.05;46.02;;;;;;;0.74;81.07;101003.70;1712978;83;20965;-74
2022/12/31 03:45:19;;;;;;;52.93;42.93;;;;;;;0.71;81.04;101011.60;1742538;82;21092;-74
2022/12/31 03:47:46;;;;;;;51.45;41.20;;;;;;;0.69;81.04;101012.10;1780198;80;21848;-74
2022/12/31 03:50:15;;;;;;;46.90;34.78;;;;;;;0.70;81.10;101012.95;1746173;81;21472;-75
2022/12/31 03:52:41;;;;;;;47.35;34.35;;;;;;;0.71;81.13;101014.66;1744142;82;20969;-74
2022/12/31 03:55:08;;;;;;;39.95;30.10;;;;;;;0.72;81.19;101007.25;1745676;82;21041;-74
2022/12/31 03:57:36;;;;;;;39.73;28.70;;;;;;;0.74;81.26;101009.36;1718276;82;21095;-74
2022/12/31 04:00:05;;;;;;;37.23;27.70;;;;;;;0.77;81.33;101008.84;1745980;81;21962;-74
2022/12/31 04:02:32;;;;;;;30.00;23.12;;;;;;;0.79;81.34;101006.19;1745531;82;20953;-74
2022/12/31 04:04:58;;;;;;;29.05;21.85;;;;;;;0.81;81.35;101007.84;1745509;82;21005;-75
2022/12/31 04:07:25;;;;;;;29.32;21.77;;;;;;;0.82;81.41;101000.89;1745688;82;20945;-75
2022/12/31 04:09:51;;;;;;;33.85;23.18;;;;;;;0.84;81.49;101005.14;1743752;82;20969;-75
2022/12/31 04:12:18;;;;;;;34.55;26.70;;;;;;;0.85;81.53;101009.44;1745634;82;21934;-75
2022/12/31 04:14:45;;;;;;;33.00;26.50;;;;;;;0.87;81.52;101013.32;1745564;82;20945;-75
2022/12/31 04:17:12;;;;;;;34.48;25.12;;;;;;;0.88;81.56;101011.13;1737500;82;21387;-74
2022/12/31 04:19:38;;;;;;;31.05;23.38;;;;;;;0.90;81.62;101008.02;1716207;83;21083;-74
2022/12/31 04:22:04;;;;;;;32.48;23.75;;;;;;;0.92;81.62;101012.72;1715989;83;20997;-74
2022/12/31 04:24:32;;;;;;;34.43;25.27;;;;;;;0.91;81.66;101011.47;1716017;82;21825;-75
2022/12/31 04:26:59;;;;;;;35.08;26.70;;;;;;;0.91;81.64;101011.47;1742466;82;20984;-75
2022/12/31 04:29:27;;;;;;;34.58;27.13;;;;;;;0.88;81.54;101010.27;1745680;81;21023;-74
2022/12/31 04:31:53;;;;;;;35.30;26.70;;;;;;;0.83;81.41;101009.94;1745741;82;21484;-73
2022/12/31 04:34:21;;;;;;;37.05;26.20;;;;;;;0.78;81.26;101018.79;1744571;82;21419;-74
2022/12/31 04:36:48;;;;;;;34.13;25.40;;;;;;;0.74;81.26;101018.45;1744127;82;21939;-74
2022/12/31 04:39:16;;;;;;;30.92;22.15;;;;;;;0.72;81.27;101018.95;1744077;82;21534;-74
2022/12/31 04:41:44;;;;;;;28.27;21.42;;;;;;;0.68;81.19;101024.70;1727583;81;21418;-74
2022/12/31 04:44:11;;;;;;;27.35;21.30;;;;;;;0.64;81.23;101023.06;1729659;81;20982;-75
2022/12/31 04:46:38;;;;;;;26.93;20.57;;;;;;;0.63;81.24;101027.01;1718718;83;21431;-74
2022/12/31 04:49:04;;;;;;;27.22;20.95;;;;;;;0.62;81.24;101025.31;1718658;83;21950;-74
2022/12/31 04:51:30;;;;;;;29.50;23.22;;;;;;;0.61;81.27;101034.00;1722172;82;21004;-75
2022/12/31 04:53:57;;;;;;;34.27;25.15;;;;;;;0.59;81.30;101030.61;1740971;82;21019;-75
2022/12/31 04:56:24;;;;;;;30.75;23.70;;;;;;;0.59;81.37;101032.75;1741153;82;20992;-75
2022/12/31 04:58:50;;;;;;;32.28;24.57;;;;;;;0.57;81.40;101030.17;1739888;82;20956;-75
2022/12/31 05:01:17;;;;;;;31.00;24.57;;;;;;;0.59;81.41;101039.25;1705618;84;21802;-74
2022/12/31 05:03:45;;;;;;;34.40;25.88;;;;;;;0.60;81.43;101039.66;1705672;84;20953;-74
2022/12/31 05:06:15;;;;;;;37.50;27.20;;;;;;;0.62;81.45;101039.16;1722261;82;20952;-73
2022/12/31 05:08:42;;;;;;;35.75;26.33;;;;;;;0.62;81.44;101033.96;1740618;81;21415;-74
2022/12/31 05:11:09;;;;;;;33.25;26.33;;;;;;;0.62;81.47;101035.26;1741710;81;20991;-74
2022/12/31 05:13:36;;;;;;;33.78;25.50;;;;;;;0.64;81.45;101033.91;1767783;81;21952;-74
2022/12/31 05:16:03;;;;;;;31.87;24.37;;;;;;;0.61;81.28;101037.91;1763874;81;21046;-74
2022/12/31 05:18:32;;;;;;;31.60;25.88;;;;;;;0.55;81.08;101042.81;1762926;81;21043;-74
2022/12/31 05:20:58;;;;;;;29.37;23.20;;;;;;;0.45;80.82;101047.86;1737212;82;21432;-74
2022/12/31 05:23:25;;;;;;;27.48;21.35;;;;;;;0.39;80.75;101054.53;1768031;81;21346;-74
2022/12/31 05:25:52;;;;;;;27.93;22.07;;;;;;;0.34;80.75;101055.94;1766357;81;21915;-74
2022/12/31 05:28:20;;;;;;;28.10;21.48;;;;;;;0.27;80.71;101059.58;1765438;81;20952;-74
2022/12/31 05:30:48;;;;;;;27.22;20.95;;;;;;;0.22;80.77;101069.26;1765774;81;21007;-75
2022/12/31 05:33:16;;;;;;;24.27;19.27;;;;;;;0.19;80.79;101066.72;1764244;80;20984;-75
2022/12/31 05:35:42;;;;;;;24.52;19.17;;;;;;;0.14;80.78;101061.66;1765903;80;20995;-74
2022/12/31 05:38:09;;;;;;;28.10;21.17;;;;;;;0.12;80.78;101061.30;1765525;81;21474;-76
2022/12/31 05:40:36;;;;;;;29.10;22.77;;;;;;;0.10;80.80;101064.39;1765378;81;21047;-74
2022/12/31 05:43:02;;;;;;;28.00;20.60;;;;;;;0.03;80.61;101064.13;1754364;81;20953;-75
2022/12/31 05:45:29;;;;;;;26.97;20.88;;;;;;;-0.06;80.48;101073.84;1708117;81;21023;-75
2022/12/31 05:47:56;;;;;;;45.88;19.65;;;;;;;-0.14;80.36;101086.59;1737182;82;21042;-75
2022/12/31 05:50:23;;;;;;;27.37;19.20;;;;;;;-0.23;80.28;101096.75;1738086;81;21868;-74
2022/12/31 05:52:51;;;;;;;24.72;19.73;;;;;;;-0.26;80.38;101098.58;1712177;82;20960;-74
2022/12/31 05:55:18;;;;;;;38.05;20.10;;;;;;;-0.27;80.45;101099.02;1735031;82;21038;-74
2022/12/31 05:57:44;;;;;;;40.30;20.25;;;;;;;-0.27;80.53;101095.58;1751681;81;21423;-74
2022/12/31 06:00:13;;;;;;;163.62;25.27;;;;;;;-0.27;80.54;101098.17;1765186;81;20964;-75
2022/12/31 06:02:42;;;;;;;78.02;26.07;;;;;;;-0.30;80.49;101104.27;1765633;81;21773;-75
2022/12/31 06:05:08;;;;;;;54.93;25.75;;;;;;;-0.33;80.46;101106.94;1730895;83;20996;-74
2022/12/31 06:07:35;;;;;;;39.88;25.02;;;;;;;-0.36;80.48;101105.28;1713878;82;21071;-75
2022/12/31 06:10:04;;;;;;;116.12;26.77;;;;;;;-0.38;80.51;101114.84;1745200;82;20993;-75
2022/12/31 06:12:31;;;;;;;91.30;25.45;;;;;;;-0.40;80.47;101119.20;1744925;82;21051;-75
2022/12/31 06:14:57;;;;;;;37.50;24.30;;;;;;;-0.44;80.32;101127.95;1745254;82;21823;-75
2022/12/31 06:17:24;;;;;;;40.95;23.30;;;;;;;-0.51;80.22;101129.41;1740310;82;20960;-74
2022/12/31 06:19:50;;;;;;;29.00;22.55;;;;;;;-0.53;80.33;101126.84;1747725;82;20957;-75
2022/12/31 06:22:17;;;;;;;40.65;23.00;;;;;;;-0.53;80.46;101131.19;1749757;82;21055;-75
2022/12/31 06:24:45;;;;;;;33.95;24.50;;;;;;;-0.50;80.53;101131.11;1715351;83;20956;-75
2022/12/31 06:27:12;;;;;;;33.95;24.95;;;;;;;-0.50;80.60;101132.41;1718789;83;21815;-75
2022/12/31 06:29:38;;;;;;;64.97;29.77;;;;;;;-0.48;80.68;101138.41;1718237;83;21017;-75
2022/12/31 06:32:05;;;;;;;37.88;29.65;;;;;;;-0.45;80.72;101146.16;1718982;83;20964;-74
2022/12/31 06:34:32;;;;;;;69.60;36.63;;;;;;;-0.47;80.68;101142.30;1735949;82;20993;-75
2022/12/31 06:36:58;;;;;;;96.85;41.42;;;;;;;-0.46;80.67;101148.34;1748872;82;21084;-75
2022/12/31 06:39:26;;;;;;;112.22;35.73;;;;;;;-0.46;80.59;101152.23;1748717;82;21475;-75
2022/12/31 06:41:53;;;;;;;51.50;28.52;;;;;;;-0.48;80.54;101166.55;1746732;82;21408;-75
2022/12/31 06:44:21;;;;;;;40.50;27.98;;;;;;;-0.49;80.58;101165.25;1748439;82;21488;-74
2022/12/31 06:46:49;;;;;;;38.70;27.10;;;;;;;-0.49;80.68;101159.62;1748639;81;21000;-73
2022/12/31 06:49:15;;;;;;;38.25;27.58;;;;;;;-0.46;80.81;101160.02;1748226;82;20911;-74
2022/12/31 06:51:44;;;;;;;45.88;26.90;;;;;;;-0.42;80.93;101159.05;1742728;81;22371;-76
2022/12/31 06:54:11;;;;;;;66.28;30.15;;;;;;;-0.38;80.99;101160.27;1738821;81;20949;-74
2022/12/31 06:56:38;;;;;;;51.95;30.52;;;;;;;-0.34;81.00;101170.13;1738799;82;20992;-75
2022/12/31 06:59:05;;;;;;;43.00;31.15;;;;;;;-0.35;81.03;101176.21;1742297;82;20968;-76
2022/12/31 07:01:44;;;;;;;49.20;33.23;;;;;;;-0.33;81.11;101183.07;1748903;81;21456;-75
2022/12/31 07:04:50;;;;;;;47.25;32.13;;;;;;;-0.27;81.23;101189.88;1721027;82;21867;-73
2022/12/31 07:07:43;;;;;;;48.78;31.10;;;;;;;-0.20;81.35;101190.58;1750041;81;21004;-74
2022/12/31 07:10:30;;;;;;;47.40;31.62;;;;;;;-0.12;81.46;101201.21;1739063;82;21000;-73
2022/12/31 07:13:25;;;;;;;50.03;33.08;;;;;;;-0.06;81.51;101198.94;1739326;82;21055;-75
2022/12/31 07:16:07;;;;;;;44.55;31.25;;;;;;;-0.04;81.60;101192.81;1743162;81;20976;-73
2022/12/31 07:18:42;;;;;;;42.73;29.98;;;;;;;0.02;81.73;101185.78;1754394;81;21779;-75
2022/12/31 07:21:12;;;;;;;37.23;27.45;;;;;;;0.09;81.83;101178.23;1754316;81;21047;-75
2022/12/31 07:23:40;;;;;;;35.50;26.25;;;;;;;0.15;81.96;101180.70;1754221;81;21060;-75
2022/12/31 07:26:18;;;;;;;34.55;25.95;;;;;;;0.21;82.10;101181.86;1741945;81;21063;-73
2022/12/31 07:28:57;;;;;;;32.28;24.10;;;;;;;0.29;82.22;101183.84;1739333;82;20987;-74
2022/12/31 07:31:47;;;;;;;27.17;20.80;;;;;;;0.38;82.35;101179.69;1738954;82;21800;-75
2022/12/31 07:34:23;;;;;;;27.70;20.88;;;;;;;0.46;82.46;101179.50;1751340;82;20953;-74
2022/12/31 07:37:02;;;;;;;25.68;20.65;;;;;;;0.53;82.57;101178.47;1751529;82;20985;-74
2022/12/31 07:39:46;;;;;;;24.65;19.85;;;;;;;0.60;82.65;101172.23;1751627;82;21048;-74
2022/12/31 07:42:18;;;;;;;27.98;20.48;;;;;;;0.66;82.71;101176.41;1746314;82;20980;-74
2022/12/31 07:45:18;;;;;;;20.63;15.70;;;;;;;0.71;82.76;101179.75;1739659;82;22552;-74
2022/12/31 07:47:45;;;;;;;26.97;20.75;;;;;;;0.76;82.86;101183.92;1749575;82;21095;-74
2022/12/31 07:50:17;;;;;;;27.13;20.92;;;;;;;0.85;83.00;101187.58;1709275;83;20967;-74
2022/12/31 07:52:44;;;;;;;28.95;22.60;;;;;;;0.90;83.04;101183.58;1721572;83;21504;-74
2022/12/31 07:55:11;;;;;;;27.67;22.05;;;;;;;0.95;83.08;101179.54;1721534;83;20977;-76
2022/12/31 07:57:58;;;;;;;27.73;21.05;;;;;;;1.02;83.21;101183.23;1721868;83;21912;-75
2022/12/31 08:00:25;;;;;;;25.48;19.65;;;;;;;1.10;83.30;101190.39;1738888;82;20940;-75
2022/12/31 08:03:14;;;;;;;26.33;20.50;;;;;;;1.19;83.33;101194.50;1739450;82;20952;-75
2022/12/31 08:06:01;;;;;;;27.67;21.73;;;;;;;1.23;83.34;101192.20;1739550;82;21004;-75
2022/12/31 08:08:56;;;;;;;30.20;20.85;;;;;;;1.30;83.46;101192.89;1720106;82;21016;-74
2022/12/31 08:11:38;;;;;;;27.45;21.25;;;;;;;1.39;83.58;101193.94;1721291;83;21841;-74
2022/12/31 08:14:09;;;;;;;27.22;20.17;;;;;;;1.47;83.63;101192.42;1721273;83;20945;-74
2022/12/31 08:16:37;;;;;;;25.52;19.95;;;;;;;1.56;83.77;101194.31;1712699;81;21058;-74
2022/12/31 08:19:05;;;;;;;27.90;21.97;;;;;;;1.65;83.86;101195.34;1754037;81;21066;-75
2022/12/31 08:22:26;;;;;;;30.23;22.10;;;;;;;1.72;83.89;101192.94;1754078;81;20964;-75
2022/12/31 08:25:18;;;;;;;28.17;22.22;;;;;;;1.79;83.92;101186.25;1726305;81;22405;-75
2022/12/31 08:28:06;;;;;;;30.88;22.98;;;;;;;1.88;83.97;101184.67;1721426;83;20981;-75
2022/12/31 08:30:59;;;;;;;30.85;24.15;;;;;;;1.94;84.04;101180.59;1721139;83;21467;-75
2022/12/31 08:33:52;;;;;;;34.43;23.73;;;;;;;2.01;84.13;101183.39;1729680;82;20953;-75
2022/12/31 08:36:30;;;;;;;29.90;23.50;;;;;;;2.11;84.22;101176.13;1736064;82;21050;-74
2022/12/31 08:39:07;;;;;;;31.45;23.15;;;;;;;2.22;84.34;101178.83;1736008;82;21930;-74
2022/12/31 08:41:44;;;;;;;33.15;24.35;;;;;;;2.33;84.41;101182.84;1660658;85;20885;-73
2022/12/31 08:44:43;;;;;;;33.53;24.18;;;;;;;2.42;84.45;101181.23;1680936;85;21018;-75
2022/12/31 08:47:40;;;;;;;32.58;25.85;;;;;;;2.51;84.49;101176.57;1681069;84;21059;-75
2022/12/31 08:50:15;;;;;;;34.75;26.60;;;;;;;2.65;84.60;101175.24;1700363;82;21055;-74
2022/12/31 08:52:42;;;;;;;34.38;26.40;;;;;;;2.78;84.64;101174.77;1709603;83;22525;-75
2022/12/31 08:55:17;;;;;;;35.98;26.45;;;;;;;2.86;84.59;101167.52;1709719;83;21016;-73
2022/12/31 08:58:12;;;;;;;33.95;24.45;;;;;;;2.98;84.66;101165.39;1708130;84;21000;-74
2022/12/31 09:00:38;;;;;;;31.27;24.85;;;;;;;3.11;84.70;101158.84;1709350;84;21064;-75
2022/12/31 09:03:48;;;;;;;32.15;25.32;;;;;;;3.25;84.71;101157.02;1681684;84;20992;-75
2022/12/31 09:06:28;;;;;;;30.92;24.63;;;;;;;3.34;84.52;101160.15;1711729;82;22486;-74
2022/12/31 09:09:28;;;;;;;31.57;24.50;;;;;;;3.43;84.38;101159.81;1738302;82;21371;-75
2022/12/31 09:12:21;;;;;;;34.53;26.52;;;;;;;3.52;84.21;101162.53;1740796;82;20975;-75
2022/12/31 09:14:54;;;;;;;32.95;25.72;;;;;;;3.57;83.87;101149.28;1731541;81;21044;-75
2022/12/31 09:17:44;;;;;;;31.87;24.87;;;;;;;3.60;83.67;101160.95;1715377;82;21060;-75
2022/12/31 09:20:26;;;;;;;28.45;23.73;;;;;;;3.65;83.47;101160.30;1718444;83;21816;-75
2022/12/31 09:22:54;;;;;;;28.17;22.62;;;;;;;3.69;83.15;101157.98;1718448;83;20861;-75
2022/12/31 09:25:22;;;;;;;31.33;23.27;;;;;;;3.72;82.96;101160.47;1744305;82;21002;-75
2022/12/31 09:28:11;;;;;;;29.10;23.77;;;;;;;3.78;82.85;101151.09;1727060;83;21547;-75
2022/12/31 09:31:14;;;;;;;29.98;23.27;;;;;;;3.86;82.80;101142.51;1746651;81;21499;-75
2022/12/31 09:33:51;;;;;;;28.32;23.07;;;;;;;3.95;82.51;101135.58;1707185;83;21935;-75
2022/12/31 09:36:44;;;;;;;29.90;23.75;;;;;;;4.03;82.36;101133.52;1718239;82;21056;-75
2022/12/31 09:39:19;;;;;;;28.77;23.50;;;;;;;4.18;82.41;101135.98;1718592;83;21052;-75
2022/12/31 09:42:30;;;;;;;28.80;22.77;;;;;;;4.32;82.20;101132.79;1731882;82;21395;-75
2022/12/31 09:45:22;;;;;;;27.90;21.27;;;;;;;4.46;81.96;101135.70;1741086;82;21027;-75
2022/12/31 09:48:14;;;;;;;29.63;23.67;;;;;;;4.58;81.69;101137.78;1746796;82;21813;-76
2022/12/31 09:51:22;;;;;;;27.82;22.30;;;;;;;4.72;81.35;101135.88;1754837;80;21023;-75
2022/12/31 09:54:05;;;;;;;26.17;21.30;;;;;;;4.88;81.10;101135.61;1766855;81;20980;-75
2022/12/31 09:56:37;;;;;;;29.05;21.97;;;;;;;4.98;80.45;101126.90;1766757;81;21411;-74
2022/12/31 09:59:12;;;;;;;30.43;23.62;;;;;;;5.03;80.04;101121.02;1745672;81;21019;-75
2022/12/31 10:02:20;;;;;;;32.03;24.23;;;;;;;5.13;79.79;101118.37;1740993;82;21902;-75
2022/12/31 10:05:19;;;;;;;27.73;22.48;;;;;;;5.28;79.62;101114.66;1729100;82;21015;-74
2022/12/31 10:08:19;;;;;;;27.07;21.82;;;;;;;5.49;79.14;101116.74;1723356;81;21050;-74
2022/12/31 10:10:52;;;;;;;28.07;21.95;;;;;;;5.57;78.52;101113.31;1718773;82;20960;-75
2022/12/31 10:13:42;;;;;;;27.13;21.52;;;;;;;5.69;78.25;101125.41;1736319;81;21071;-74
2022/12/31 10:16:20;;;;;;;26.02;21.00;;;;;;;5.83;77.85;101112.94;1738286;81;21901;-75
2022/12/31 10:19:14;;;;;;;25.57;21.05;;;;;;;5.92;77.36;101112.53;1718458;83;21043;-75
2022/12/31 10:22:24;;;;;;;24.63;20.20;;;;;;;6.03;76.88;101104.98;1737548;82;21034;-76
2022/12/31 10:25:29;;;;;;;27.10;21.10;;;;;;;6.13;76.40;101100.14;1737260;82;21023;-76
2022/12/31 10:28:42;;;;;;;26.87;21.77;;;;;;;6.22;75.75;101103.62;1734864;82;20959;-73
2022/12/31 10:31:48;;;;;;;25.97;20.68;;;;;;;6.35;75.44;101100.38;1736864;81;21946;-75
2022/12/31 10:34:53;;;;;;;24.07;19.77;;;;;;;6.56;75.25;101096.66;1767495;81;20949;-74
2022/12/31 10:37:34;;;;;;;27.55;20.72;;;;;;;6.80;74.93;101103.28;1767704;80;21043;-75
2022/12/31 10:40:33;;;;;;;25.82;20.55;;;;;;;6.89;73.90;101101.48;1766055;81;21475;-75
2022/12/31 10:43:13;;;;;;;25.45;21.12;;;;;;;6.92;73.39;101097.00;1767828;81;21046;-75
2022/12/31 10:46:31;;;;;;;23.67;20.02;;;;;;;7.00;73.31;101095.66;1747581;82;22441;-74
2022/12/31 10:49:21;;;;;;;25.85;21.02;;;;;;;7.11;72.62;101097.72;1728494;82;21016;-76
2022/12/31 10:52:31;;;;;;;27.37;21.25;;;;;;;7.13;72.18;101090.13;1764433;81;20999;-75
2022/12/31 10:55:32;;;;;;;23.90;20.43;;;;;;;7.16;71.51;101086.05;1764035;81;21039;-76
2022/12/31 10:58:38;;;;;;;27.13;20.17;;;;;;;7.11;71.33;101093.31;1709779;81;21536;-74
2022/12/31 11:01:47;;;;;;;29.27;21.23;;;;;;;7.15;71.03;101090.08;1707267;82;21884;-74
2022/12/31 11:04:39;;;;;;;25.43;19.45;;;;;;;7.17;70.82;101082.48;1736533;82;21411;-74
2022/12/31 11:07:20;;;;;;;25.65;20.62;;;;;;;7.23;70.44;101084.38;1756753;81;20955;-75
2022/12/31 11:10:11;;;;;;;23.73;18.70;;;;;;;7.25;70.18;101073.34;1740838;82;21078;-75
2022/12/31 11:13:04;;;;;;;27.10;19.00;;;;;;;7.30;69.99;101073.93;1741187;82;21534;-75
2022/12/31 11:16:10;;;;;;;22.60;19.32;;;;;;;7.35;69.89;101077.17;1706100;82;21861;-74
2022/12/31 11:18:47;;;;;;;22.85;18.42;;;;;;;7.40;69.61;101075.97;1718333;83;21011;-75
2022/12/31 11:21:29;;;;;;;23.73;20.23;;;;;;;7.43;69.53;101073.19;1709352;83;21001;-75
2022/12/31 11:24:24;;;;;;;22.00;18.82;;;;;;;7.51;69.37;101074.52;1700974;82;21022;-75
2022/12/31 11:27:16;;;;;;;24.00;19.02;;;;;;;7.53;69.24;101076.59;1748433;82;21005;-75
2022/12/31 11:30:13;;;;;;;25.35;19.12;;;;;;;7.52;69.11;101074.91;1746252;82;22363;-75
2022/12/31 11:33:15;;;;;;;24.37;20.02;;;;;;;7.51;69.05;101081.09;1707250;83;20880;-75
2022/12/31 11:36:20;;;;;;;22.00;18.67;;;;;;;7.48;68.83;101076.02;1665868;86;21027;-75
2022/12/31 11:38:53;;;;;;;23.83;18.40;;;;;;;7.37;68.71;101069.58;1720156;83;21075;-75
2022/12/31 11:41:41;;;;;;;21.07;18.20;;;;;;;7.30;68.78;101083.97;1742045;81;20929;-75
2022/12/31 11:44:27;;;;;;;23.75;18.87;;;;;;;7.25;68.86;101075.98;1740830;81;20996;-74
2022/12/31 11:47:05;;;;;;;24.67;18.90;;;;;;;7.16;68.90;101080.80;1742869;82;20999;-75
2022/12/31 11:49:52;;;;;;;25.92;20.10;;;;;;;7.11;69.05;101084.58;1748399;81;21072;-75
2022/12/31 11:52:33;;;;;;;26.12;21.05;;;;;;;7.08;69.28;101080.81;1747884;82;21013;-75
2022/12/31 11:55:18;;;;;;;28.55;21.62;;;;;;;7.11;69.44;101091.15;1748508;82;21518;-76
2022/12/31 11:57:49;;;;;;;25.20;20.60;;;;;;;7.17;69.56;101092.14;1728215;82;22144;-75
2022/12/31 12:00:22;;;;;;;24.82;20.60;;;;;;;7.28;69.69;101085.00;1728599;82;20870;-76
2022/12/31 12:03:04;;;;;;;26.35;20.60;;;;;;;7.38;69.71;101075.21;1718718;83;21004;-75
2022/12/31 12:05:32;;;;;;;22.90;18.48;;;;;;;7.53;69.65;101073.53;1719299;82;21055;-75
2022/12/31 12:07:58;;;;;;;24.50;19.42;;;;;;;7.65;69.40;101071.99;1718462;83;21028;-75
2022/12/31 12:10:48;;;;;;;23.85;19.80;;;;;;;7.76;69.16;101077.48;1718539;83;21970;-75